Buxton, Oregon
Current Conditions -  °F | °C
As of 4:53 PM on Sunday 23 Nov 2014 (Local Time) from KHIO Reporting Station
Overcast Overcast  
Wind Chill: 51°   Ceiling: 3400
Heat Index: 51°   Visibility: 10mi
Dew Point: 48°   Wind: 6mph
Humidity: 89%   Direction: 30°NNE
Pressure: 30.28"   Gusts: NA
Location:  45.69°N, 123.19°W
Report Text: KHIO 240053Z 03005KT 10SM BKN034 OVC047 11/09 A3028 RMK AO2 SLP253 T01060089
Loading
Personal Weather Stations






























Interactive Weather Map New forecast layout! Learn more

10-Day Weather Forecast

Advertisements
Track Severe Weather on mobile